VAM Template | Vabird

Vabird! Vabird Marcello Mazzieri




 INFORMACIÓN METAR y TAF
METAR FOR USPP
ADDS - METARS form results

(1614 UTC 26 September 2020)
Data provider http://aviationweather.gov/metar/data/
 
METAR text: USPP 261600Z 24003MPS CAVOK 07/05 Q1031 R21/090060 NOSIG RMK QFE763
Conditions at: USPP (PERM/BOLSHOE SAV, RU) observed 1600 UTC 26 September 2020
Temperature: 7.0°C (45°F)
Dewpoint: 5.0°C (41°F) [RH = 87%]
Pressure (altimeter): 30.44 inches Hg (1031.0 mb)
Winds: from the WSW (240 degrees) at 7 MPH (6 knots; 3.1 m/s)
Visibility: 6 or more miles (10+ km)
Ceiling: ceiling and visibility are OK
Clouds: unknown
Weather: no significant weather observed at this time

METAR text: USPP 261530Z 22003MPS CAVOK 09/05 Q1031 R21/090060 NOSIG RMK QFE762
Conditions at: USPP (PERM/BOLSHOE SAV, RU) observed 1530 UTC 26 September 2020
Temperature: 9.0°C (48°F)
Dewpoint: 5.0°C (41°F) [RH = 76%]
Pressure (altimeter): 30.44 inches Hg (1031.0 mb)
Winds: from the SW (220 degrees) at 7 MPH (6 knots; 3.1 m/s)
Visibility: 6 or more miles (10+ km)
Ceiling: ceiling and visibility are OK
Clouds: unknown
Weather: no significant weather observed at this time

Forecast for: USPP (PERM/BOLSHOE SAV, RU)
Text: TAF USPP 261355Z 2615/2715 23003G08MPS CAVOK
Forecast period: 1500 to 1700 UTC 26 September 2020
Forecast type: FROM: standard forecast or significant change
Winds: from the SW (230 degrees) at 7 MPH (6 knots; 3.1 m/s)
gusting to 18 MPH (16 knots; 8.2 m/s)
Visibility: 6 or more miles (10+ km)
Ceiling: unknown
Clouds: missing
Weather: NSW  (no significant weather)
Text: BECMG 2617/2618 6000 FEW003
Forecast period: 1700 UTC 26 September 2020 to 0400 UTC 27 September 2020
Forecast type: BECOMING: Conditions expected to become as follows by 1800 UTC 26 September 2020
Winds: from the SW (230 degrees) at 7 MPH (6 knots; 3.1 m/s)
gusting to 18 MPH (16 knots; 8.2 m/s)
Visibility: 4 miles (6 km)
Ceiling: at least 12,000 feet AGL
Clouds: few clouds at 300 feet AGL
Weather: NSW  (no significant weather)
Text: BECMG 2704/2705 CAVOK
Forecast period: 0400 to 1500 UTC 27 September 2020
Forecast type: BECOMING: Conditions expected to become as follows by 0500 UTC 27 September 2020
Winds: from the SW (230 degrees) at 7 MPH (6 knots; 3.1 m/s)
gusting to 18 MPH (16 knots; 8.2 m/s)
Visibility: 6 or more miles (10+ km)
Ceiling: unknown
Clouds: missing
Weather: NSW  (no significant weather)

 MAPA DE AEROPUERTO

 INFORMACIÓN DE PISTA